Bluffton, SC

4:09 PM EDT on May 29, 2015 (GMT -0400)
Bluffton RHP | | Change Station
CLOSE
Current Station
Personal Weather Station
Location: Bluffton, SC
Elevation: 35 ft
Nearby Weather Stations

Elev 35 ft 32.27 °N, 80.89 °W | Updated 4 minutes ago

Partly Cloudy
Partly Cloudy
82.3 °F
Feels Like 85 °F
N
1.0
Wind Variable Wind from North
Gusts 2.0 mph

Today
High -- | Low -- °F
--% Chance of Precip.
Yesterday
High -- | Low -- °F
Precip. -- in
6:18 AM 8:23 PM
Waxing Gibbous, 85% visible
Pressure 30.19 in
Visibility 10.0 miles
Clouds Scattered Clouds 3800 ft
Heat Index 85 °F
Dew Point 68 °F
Humidity 61%
Rainfall 0.00 in
Snow Depth Not available.
UV 8 out of 12
Pollen 5.80 out of 12
Air Quality Not available.
Flu Activity Local Activity
METAR KHXD 291950Z 04010KT 10SM SCT038 27/22 A3019

More Conditions Fewer Conditions

Pressure 30.19 in
Visibility 10.0 miles
Clouds Scattered Clouds 3800 ft
Heat Index 85 °F
Dew Point 68 °F
Humidity 61%
Rainfall 0.00 in
Snow Depth Not available.
UV 8 out of 12
Pollen 5.80 out of 12
Air Quality Not available.
Flu Activity Local Activity
METAR KHXD 291950Z 04010KT 10SM SCT038 27/22 A3019

More Conditions Fewer Conditions

10-Day Weather Forecast

Almanac

Astronomy

May. 29, 2015 Rise Set
Actual Time
Civil Twilight
Nautical Twilight
Astronomical Twilight
Moon
Length of Visible Light
Length of Day
Tomorrow will be .
, % of the Moon is Illuminated

Today's Extremes

State Highs State Lows

Community

WunderPhotos

Upload Photos

1,825,331 photos uploaded!

WunderBlogs® & News

Nearby

Air Quality

  Air Quality AQ Index Pollutant
Not available.

Snow Depth

Station Depth Elevation

Earthquake Activity

City Distance Mag. Time & Date
Minimum magnitude displayed is 2.5.

Coastal Water Temperatures

Place Temperature

Stations

Nearby Weather Stations

Station Location Temp. Windchill Dew Point Humidity Wind Precip. Elev Updated Type